sensor_id;sensor_type;location;lat;lon;timestamp;temperature;humidity
21508;DHT22;10915;54.352;9.074;2023-06-19T00:00:53;16.60;99.90
21508;DHT22;10915;54.352;9.074;2023-06-19T00:03:19;16.60;99.90
21508;DHT22;10915;54.352;9.074;2023-06-19T00:05:44;16.70;99.90
21508;DHT22;10915;54.352;9.074;2023-06-19T00:08:13;16.80;99.90
21508;DHT22;10915;54.352;9.074;2023-06-19T00:10:39;16.90;99.90
21508;DHT22;10915;54.352;9.074;2023-06-19T00:13:12;16.90;99.90
21508;DHT22;10915;54.352;9.074;2023-06-19T00:16:04;16.90;99.90
21508;DHT22;10915;54.352;9.074;2023-06-19T00:18:30;16.80;99.90
21508;DHT22;10915;54.352;9.074;2023-06-19T00:20:55;16.70;99.90
21508;DHT22;10915;54.352;9.074;2023-06-19T00:23:27;16.70;99.90
21508;DHT22;10915;54.352;9.074;2023-06-19T00:25:53;16.70;99.90
21508;DHT22;10915;54.352;9.074;2023-06-19T00:28:23;16.70;99.90
21508;DHT22;10915;54.352;9.074;2023-06-19T00:30:58;16.70;99.90
21508;DHT22;10915;54.352;9.074;2023-06-19T00:33:24;16.70;99.90
21508;DHT22;10915;54.352;9.074;2023-06-19T00:35:52;16.70;99.90
21508;DHT22;10915;54.352;9.074;2023-06-19T00:38:25;16.70;99.90
21508;DHT22;10915;54.352;9.074;2023-06-19T00:41:07;16.70;99.90
21508;DHT22;10915;54.352;9.074;2023-06-19T00:43:35;16.70;99.90
21508;DHT22;10915;54.352;9.074;2023-06-19T00:49:08;16.80;99.90
21508;DHT22;10915;54.352;9.074;2023-06-19T00:51:38;16.80;99.90
21508;DHT22;10915;54.352;9.074;2023-06-19T00:54:23;16.80;99.90
21508;DHT22;10915;54.352;9.074;2023-06-19T00:57:33;16.80;99.90
21508;DHT22;10915;54.352;9.074;2023-06-19T01:00:15;16.80;99.90
21508;DHT22;10915;54.352;9.074;2023-06-19T01:02:40;16.80;99.90
21508;DHT22;10915;54.352;9.074;2023-06-19T01:05:29;16.80;99.90
21508;DHT22;10915;54.352;9.074;2023-06-19T01:11:03;16.80;99.90
21508;DHT22;10915;54.352;9.074;2023-06-19T01:13:59;16.90;99.90
21508;DHT22;10915;54.352;9.074;2023-06-19T01:16:36;16.90;99.90
21508;DHT22;10915;54.352;9.074;2023-06-19T01:19:10;16.90;99.90
21508;DHT22;10915;54.352;9.074;2023-06-19T01:21:52;16.90;99.90
21508;DHT22;10915;54.352;9.074;2023-06-19T01:24:35;17.00;99.90
21508;DHT22;10915;54.352;9.074;2023-06-19T01:27:00;17.00;99.90
21508;DHT22;10915;54.352;9.074;2023-06-19T01:29:32;16.90;99.90
21508;DHT22;10915;54.352;9.074;2023-06-19T01:35:07;16.90;99.90
21508;DHT22;10915;54.352;9.074;2023-06-19T01:37:43;16.80;99.90
21508;DHT22;10915;54.352;9.074;2023-06-19T01:40:22;16.80;99.90
21508;DHT22;10915;54.352;9.074;2023-06-19T01:43:00;16.80;99.90
21508;DHT22;10915;54.352;9.074;2023-06-19T01:45:37;16.80;99.90
21508;DHT22;10915;54.352;9.074;2023-06-19T01:48:03;16.80;99.90
21508;DHT22;10915;54.352;9.074;2023-06-19T01:50:32;16.80;99.90
21508;DHT22;10915;54.352;9.074;2023-06-19T01:53:05;16.90;99.90
21508;DHT22;10915;54.352;9.074;2023-06-19T01:55:33;16.90;99.90
21508;DHT22;10915;54.352;9.074;2023-06-19T01:57:58;16.90;99.90
21508;DHT22;10915;54.352;9.074;2023-06-19T02:00:24;17.10;99.90
21508;DHT22;10915;54.352;9.074;2023-06-19T02:02:50;17.10;99.90
21508;DHT22;10915;54.352;9.074;2023-06-19T02:05:18;17.20;99.90
21508;DHT22;10915;54.352;9.074;2023-06-19T02:10:43;17.30;99.90
21508;DHT22;10915;54.352;9.074;2023-06-19T02:13:26;17.20;99.90
21508;DHT22;10915;54.352;9.074;2023-06-19T02:16:03;17.20;99.90
21508;DHT22;10915;54.352;9.074;2023-06-19T02:18:35;17.20;99.90
21508;DHT22;10915;54.352;9.074;2023-06-19T02:21:19;17.20;99.90
21508;DHT22;10915;54.352;9.074;2023-06-19T02:23:45;17.10;99.90
21508;DHT22;10915;54.352;9.074;2023-06-19T02:27:03;17.20;99.90
21508;DHT22;10915;54.352;9.074;2023-06-19T02:29:33;17.20;99.90
21508;DHT22;10915;54.352;9.074;2023-06-19T02:32:03;17.20;99.90
21508;DHT22;10915;54.352;9.074;2023-06-19T02:34:28;17.20;99.90
21508;DHT22;10915;54.352;9.074;2023-06-19T02:36:54;17.20;99.90
21508;DHT22;10915;54.352;9.074;2023-06-19T02:39:49;17.30;99.90
21508;DHT22;10915;54.352;9.074;2023-06-19T02:42:28;17.20;99.90
21508;DHT22;10915;54.352;9.074;2023-06-19T02:44:53;17.30;99.90
21508;DHT22;10915;54.352;9.074;2023-06-19T02:47:19;17.40;99.90
21508;DHT22;10915;54.352;9.074;2023-06-19T02:50:04;17.30;99.90
21508;DHT22;10915;54.352;9.074;2023-06-19T02:52:35;17.20;99.90
21508;DHT22;10915;54.352;9.074;2023-06-19T02:55:04;17.30;99.90
21508;DHT22;10915;54.352;9.074;2023-06-19T02:57:29;17.20;99.90
21508;DHT22;10915;54.352;9.074;2023-06-19T03:00:04;17.20;99.90
21508;DHT22;10915;54.352;9.074;2023-06-19T03:02:44;17.30;99.90
21508;DHT22;10915;54.352;9.074;2023-06-19T03:05:17;17.30;99.90
21508;DHT22;10915;54.352;9.074;2023-06-19T03:07:56;17.30;99.90
21508;DHT22;10915;54.352;9.074;2023-06-19T03:10:24;17.40;99.90
21508;DHT22;10915;54.352;9.074;2023-06-19T03:12:55;17.50;99.90
21508;DHT22;10915;54.352;9.074;2023-06-19T03:15:56;17.60;99.90
21508;DHT22;10915;54.352;9.074;2023-06-19T03:18:32;17.60;99.90
21508;DHT22;10915;54.352;9.074;2023-06-19T03:21:16;17.70;99.90
21508;DHT22;10915;54.352;9.074;2023-06-19T03:24:18;17.70;99.90
21508;DHT22;10915;54.352;9.074;2023-06-19T03:29:35;17.70;99.90
21508;DHT22;10915;54.352;9.074;2023-06-19T03:32:30;17.70;99.90
21508;DHT22;10915;54.352;9.074;2023-06-19T03:37:47;17.50;99.90
21508;DHT22;10915;54.352;9.074;2023-06-19T03:40:24;17.50;99.90
21508;DHT22;10915;54.352;9.074;2023-06-19T03:42:49;17.60;99.90
21508;DHT22;10915;54.352;9.074;2023-06-19T03:45:15;17.50;99.90
21508;DHT22;10915;54.352;9.074;2023-06-19T03:47:40;17.50;99.90
21508;DHT22;10915;54.352;9.074;2023-06-19T03:50:06;17.50;99.90
21508;DHT22;10915;54.352;9.074;2023-06-19T03:52:35;17.50;99.90
21508;DHT22;10915;54.352;9.074;2023-06-19T03:55:03;17.60;99.90
21508;DHT22;10915;54.352;9.074;2023-06-19T03:57:29;17.60;99.90
21508;DHT22;10915;54.352;9.074;2023-06-19T03:59:54;17.70;99.90
21508;DHT22;10915;54.352;9.074;2023-06-19T04:02:20;17.70;99.90
21508;DHT22;10915;54.352;9.074;2023-06-19T04:04:46;17.60;99.90
21508;DHT22;10915;54.352;9.074;2023-06-19T04:07:11;17.70;99.90
21508;DHT22;10915;54.352;9.074;2023-06-19T04:09:37;17.70;99.90
21508;DHT22;10915;54.352;9.074;2023-06-19T04:12:02;17.80;99.90
21508;DHT22;10915;54.352;9.074;2023-06-19T04:14:28;17.80;99.90
21508;DHT22;10915;54.352;9.074;2023-06-19T04:16:54;17.90;99.90
21508;DHT22;10915;54.352;9.074;2023-06-19T04:19:19;17.80;99.90
21508;DHT22;10915;54.352;9.074;2023-06-19T04:21:45;17.80;99.90
21508;DHT22;10915;54.352;9.074;2023-06-19T04:24:10;17.80;99.90
21508;DHT22;10915;54.352;9.074;2023-06-19T04:26:36;17.80;99.90
21508;DHT22;10915;54.352;9.074;2023-06-19T04:29:02;17.80;99.90
21508;DHT22;10915;54.352;9.074;2023-06-19T04:31:28;17.80;99.90
21508;DHT22;10915;54.352;9.074;2023-06-19T04:33:54;17.80;99.90
21508;DHT22;10915;54.352;9.074;2023-06-19T04:36:22;17.80;99.90
21508;DHT22;10915;54.352;9.074;2023-06-19T04:38:48;17.80;99.90
21508;DHT22;10915;54.352;9.074;2023-06-19T04:41:16;17.80;99.90
21508;DHT22;10915;54.352;9.074;2023-06-19T04:43:42;17.80;99.90
21508;DHT22;10915;54.352;9.074;2023-06-19T04:46:08;17.90;99.90
21508;DHT22;10915;54.352;9.074;2023-06-19T04:48:33;17.90;99.90
21508;DHT22;10915;54.352;9.074;2023-06-19T04:51:02;17.90;99.90
21508;DHT22;10915;54.352;9.074;2023-06-19T04:53:28;17.90;99.90
21508;DHT22;10915;54.352;9.074;2023-06-19T04:55:54;17.90;99.90
21508;DHT22;10915;54.352;9.074;2023-06-19T04:58:23;17.90;99.90
21508;DHT22;10915;54.352;9.074;2023-06-19T05:00:49;17.90;99.90
21508;DHT22;10915;54.352;9.074;2023-06-19T05:03:18;17.90;99.90
21508;DHT22;10915;54.352;9.074;2023-06-19T05:05:44;17.90;99.90
21508;DHT22;10915;54.352;9.074;2023-06-19T05:08:10;17.90;99.90
21508;DHT22;10915;54.352;9.074;2023-06-19T05:10:35;17.90;99.90
21508;DHT22;10915;54.352;9.074;2023-06-19T05:13:01;17.90;99.90
21508;DHT22;10915;54.352;9.074;2023-06-19T05:15:27;17.90;99.90
21508;DHT22;10915;54.352;9.074;2023-06-19T05:17:53;17.90;99.90
21508;DHT22;10915;54.352;9.074;2023-06-19T05:20:19;18.00;99.90
21508;DHT22;10915;54.352;9.074;2023-06-19T05:22:45;17.90;99.90
21508;DHT22;10915;54.352;9.074;2023-06-19T05:25:11;18.00;99.90
21508;DHT22;10915;54.352;9.074;2023-06-19T05:27:36;18.00;99.90
21508;DHT22;10915;54.352;9.074;2023-06-19T05:30:03;18.00;99.90
21508;DHT22;10915;54.352;9.074;2023-06-19T05:32:29;18.00;99.90
21508;DHT22;10915;54.352;9.074;2023-06-19T05:34:55;18.00;99.90
21508;DHT22;10915;54.352;9.074;2023-06-19T05:37:21;18.00;99.90
21508;DHT22;10915;54.352;9.074;2023-06-19T05:39:48;18.00;99.90
21508;DHT22;10915;54.352;9.074;2023-06-19T05:42:14;18.00;99.90
21508;DHT22;10915;54.352;9.074;2023-06-19T05:44:39;18.00;99.90
21508;DHT22;10915;54.352;9.074;2023-06-19T05:47:06;18.00;99.90
21508;DHT22;10915;54.352;9.074;2023-06-19T05:49:31;18.10;99.90
21508;DHT22;10915;54.352;9.074;2023-06-19T05:51:57;18.00;99.90
21508;DHT22;10915;54.352;9.074;2023-06-19T05:54:26;18.10;99.90
21508;DHT22;10915;54.352;9.074;2023-06-19T05:56:52;18.20;99.90
21508;DHT22;10915;54.352;9.074;2023-06-19T05:59:18;18.20;99.90
21508;DHT22;10915;54.352;9.074;2023-06-19T06:01:44;18.30;99.90
21508;DHT22;10915;54.352;9.074;2023-06-19T06:04:09;18.30;99.90
21508;DHT22;10915;54.352;9.074;2023-06-19T06:06:35;18.30;99.90
21508;DHT22;10915;54.352;9.074;2023-06-19T06:09:01;18.20;99.90
21508;DHT22;10915;54.352;9.074;2023-06-19T06:11:26;18.30;99.90
21508;DHT22;10915;54.352;9.074;2023-06-19T06:13:52;18.40;99.90
21508;DHT22;10915;54.352;9.074;2023-06-19T06:16:18;18.40;99.90
21508;DHT22;10915;54.352;9.074;2023-06-19T06:18:45;18.50;99.90
21508;DHT22;10915;54.352;9.074;2023-06-19T06:21:10;18.40;99.90
21508;DHT22;10915;54.352;9.074;2023-06-19T06:23:40;18.50;99.90
21508;DHT22;10915;54.352;9.074;2023-06-19T06:26:05;18.70;99.90
21508;DHT22;10915;54.352;9.074;2023-06-19T06:28:31;18.80;99.90
21508;DHT22;10915;54.352;9.074;2023-06-19T06:30:57;18.70;99.90
21508;DHT22;10915;54.352;9.074;2023-06-19T06:33:23;18.90;99.90
21508;DHT22;10915;54.352;9.074;2023-06-19T06:35:49;19.00;99.90
21508;DHT22;10915;54.352;9.074;2023-06-19T06:38:14;19.10;99.90
21508;DHT22;10915;54.352;9.074;2023-06-19T06:40:40;19.10;99.90
21508;DHT22;10915;54.352;9.074;2023-06-19T06:43:07;19.20;99.90
21508;DHT22;10915;54.352;9.074;2023-06-19T06:45:32;19.20;99.90
21508;DHT22;10915;54.352;9.074;2023-06-19T06:47:58;19.10;99.90
21508;DHT22;10915;54.352;9.074;2023-06-19T06:50:23;19.10;99.90
21508;DHT22;10915;54.352;9.074;2023-06-19T06:52:49;19.10;99.90
21508;DHT22;10915;54.352;9.074;2023-06-19T06:55:15;19.10;99.90
21508;DHT22;10915;54.352;9.074;2023-06-19T06:57:40;19.00;99.90
21508;DHT22;10915;54.352;9.074;2023-06-19T07:00:06;19.00;99.90
21508;DHT22;10915;54.352;9.074;2023-06-19T07:02:35;19.10;99.90
21508;DHT22;10915;54.352;9.074;2023-06-19T07:05:00;19.00;99.90
21508;DHT22;10915;54.352;9.074;2023-06-19T07:07:26;18.90;99.90
21508;DHT22;10915;54.352;9.074;2023-06-19T07:09:51;18.90;99.90
21508;DHT22;10915;54.352;9.074;2023-06-19T07:12:17;19.00;99.90
21508;DHT22;10915;54.352;9.074;2023-06-19T07:14:43;19.00;99.90
21508;DHT22;10915;54.352;9.074;2023-06-19T07:17:08;19.10;99.90
21508;DHT22;10915;54.352;9.074;2023-06-19T07:19:34;19.10;99.90
21508;DHT22;10915;54.352;9.074;2023-06-19T07:22:00;19.00;99.90
21508;DHT22;10915;54.352;9.074;2023-06-19T07:24:25;19.10;99.90
21508;DHT22;10915;54.352;9.074;2023-06-19T07:26:51;19.10;99.90
21508;DHT22;10915;54.352;9.074;2023-06-19T07:29:17;19.10;99.90
21508;DHT22;10915;54.352;9.074;2023-06-19T07:31:42;19.20;99.90
21508;DHT22;10915;54.352;9.074;2023-06-19T07:34:08;19.20;99.90
21508;DHT22;10915;54.352;9.074;2023-06-19T07:36:34;19.30;99.90
21508;DHT22;10915;54.352;9.074;2023-06-19T07:38:59;19.50;99.90
21508;DHT22;10915;54.352;9.074;2023-06-19T07:41:25;19.70;99.90
21508;DHT22;10915;54.352;9.074;2023-06-19T07:43:50;19.90;99.90
21508;DHT22;10915;54.352;9.074;2023-06-19T07:46:16;20.10;99.90
21508;DHT22;10915;54.352;9.074;2023-06-19T07:48:42;20.20;99.90
21508;DHT22;10915;54.352;9.074;2023-06-19T07:51:08;20.30;99.90
21508;DHT22;10915;54.352;9.074;2023-06-19T07:53:33;20.50;99.90
21508;DHT22;10915;54.352;9.074;2023-06-19T07:55:59;20.60;99.90
21508;DHT22;10915;54.352;9.074;2023-06-19T07:58:25;20.90;99.90
21508;DHT22;10915;54.352;9.074;2023-06-19T08:00:50;20.90;99.90
21508;DHT22;10915;54.352;9.074;2023-06-19T08:03:16;21.00;99.90
21508;DHT22;10915;54.352;9.074;2023-06-19T08:05:41;21.20;99.90
21508;DHT22;10915;54.352;9.074;2023-06-19T08:08:07;21.30;99.90
21508;DHT22;10915;54.352;9.074;2023-06-19T08:10:33;21.40;99.90
21508;DHT22;10915;54.352;9.074;2023-06-19T08:12:58;21.60;99.90
21508;DHT22;10915;54.352;9.074;2023-06-19T08:15:24;21.70;99.90
21508;DHT22;10915;54.352;9.074;2023-06-19T08:17:49;21.70;99.90
21508;DHT22;10915;54.352;9.074;2023-06-19T08:20:15;21.70;99.90
21508;DHT22;10915;54.352;9.074;2023-06-19T08:22:41;21.70;99.90
21508;DHT22;10915;54.352;9.074;2023-06-19T08:25:07;21.70;99.90
21508;DHT22;10915;54.352;9.074;2023-06-19T08:27:32;21.70;99.90
21508;DHT22;10915;54.352;9.074;2023-06-19T08:29:58;21.70;99.90
21508;DHT22;10915;54.352;9.074;2023-06-19T08:32:23;21.70;99.90
21508;DHT22;10915;54.352;9.074;2023-06-19T08:34:49;21.90;99.90
21508;DHT22;10915;54.352;9.074;2023-06-19T08:37:15;21.90;99.90
21508;DHT22;10915;54.352;9.074;2023-06-19T08:39:40;21.90;99.90
21508;DHT22;10915;54.352;9.074;2023-06-19T08:42:07;22.00;99.90
21508;DHT22;10915;54.352;9.074;2023-06-19T08:44:36;22.20;99.90
21508;DHT22;10915;54.352;9.074;2023-06-19T08:47:02;22.30;99.90
21508;DHT22;10915;54.352;9.074;2023-06-19T08:49:35;22.40;99.90
21508;DHT22;10915;54.352;9.074;2023-06-19T08:52:02;22.50;99.90
21508;DHT22;10915;54.352;9.074;2023-06-19T08:54:27;22.60;99.90
21508;DHT22;10915;54.352;9.074;2023-06-19T08:56:53;22.90;99.90
21508;DHT22;10915;54.352;9.074;2023-06-19T08:59:20;23.10;99.90
21508;DHT22;10915;54.352;9.074;2023-06-19T09:01:52;23.30;99.90
21508;DHT22;10915;54.352;9.074;2023-06-19T09:04:27;23.60;99.90
21508;DHT22;10915;54.352;9.074;2023-06-19T09:06:55;23.90;99.90
21508;DHT22;10915;54.352;9.074;2023-06-19T09:09:24;24.10;99.90
21508;DHT22;10915;54.352;9.074;2023-06-19T09:12:11;24.30;99.90
21508;DHT22;10915;54.352;9.074;2023-06-19T09:14:42;24.40;99.90
21508;DHT22;10915;54.352;9.074;2023-06-19T09:17:13;24.40;99.90
21508;DHT22;10915;54.352;9.074;2023-06-19T09:19:47;24.60;99.90
21508;DHT22;10915;54.352;9.074;2023-06-19T09:22:13;24.60;99.90
21508;DHT22;10915;54.352;9.074;2023-06-19T09:24:41;24.60;99.90
21508;DHT22;10915;54.352;9.074;2023-06-19T09:27:14;24.70;99.90
21508;DHT22;10915;54.352;9.074;2023-06-19T09:29:42;24.90;99.90
21508;DHT22;10915;54.352;9.074;2023-06-19T09:32:15;25.00;99.90
21508;DHT22;10915;54.352;9.074;2023-06-19T09:34:40;25.10;99.90
21508;DHT22;10915;54.352;9.074;2023-06-19T09:37:07;25.10;99.90
21508;DHT22;10915;54.352;9.074;2023-06-19T09:39:35;25.20;99.90
21508;DHT22;10915;54.352;9.074;2023-06-19T12:37:01;27.60;99.90
21508;DHT22;10915;54.352;9.074;2023-06-19T13:08:38;26.30;99.90
21508;DHT22;10915;54.352;9.074;2023-06-19T13:17:40;26.50;99.90
21508;DHT22;10915;54.352;9.074;2023-06-19T13:20:32;26.30;99.90
21508;DHT22;10915;54.352;9.074;2023-06-19T14:04:31;27.40;99.90
21508;DHT22;10915;54.352;9.074;2023-06-19T14:35:15;26.80;99.90
21508;DHT22;10915;54.352;9.074;2023-06-19T14:45:32;26.30;99.90
21508;DHT22;10915;54.352;9.074;2023-06-19T15:27:12;26.80;99.90
21508;DHT22;10915;54.352;9.074;2023-06-19T15:38:34;27.20;99.90
21508;DHT22;10915;54.352;9.074;2023-06-19T15:44:14;27.20;99.90
21508;DHT22;10915;54.352;9.074;2023-06-19T15:46:40;27.10;99.90
21508;DHT22;10915;54.352;9.074;2023-06-19T15:49:05;27.00;99.90
21508;DHT22;10915;54.352;9.074;2023-06-19T15:51:31;26.80;99.90
21508;DHT22;10915;54.352;9.074;2023-06-19T15:53:56;26.80;99.90
21508;DHT22;10915;54.352;9.074;2023-06-19T15:56:22;26.80;99.90
21508;DHT22;10915;54.352;9.074;2023-06-19T15:58:48;26.80;99.90
21508;DHT22;10915;54.352;9.074;2023-06-19T16:01:16;26.70;99.90
21508;DHT22;10915;54.352;9.074;2023-06-19T16:03:42;26.60;99.90
21508;DHT22;10915;54.352;9.074;2023-06-19T16:06:07;26.60;99.90
21508;DHT22;10915;54.352;9.074;2023-06-19T16:08:33;26.60;99.90
21508;DHT22;10915;54.352;9.074;2023-06-19T16:10:59;26.60;99.90
21508;DHT22;10915;54.352;9.074;2023-06-19T16:13:24;26.50;99.90
21508;DHT22;10915;54.352;9.074;2023-06-19T16:15:50;26.50;99.90
21508;DHT22;10915;54.352;9.074;2023-06-19T16:18:16;26.50;99.90
21508;DHT22;10915;54.352;9.074;2023-06-19T16:20:41;26.50;99.90
21508;DHT22;10915;54.352;9.074;2023-06-19T16:23:07;26.50;99.90
21508;DHT22;10915;54.352;9.074;2023-06-19T16:25:33;26.50;99.90
21508;DHT22;10915;54.352;9.074;2023-06-19T16:27:58;26.40;99.90
21508;DHT22;10915;54.352;9.074;2023-06-19T16:30:24;26.40;99.90
21508;DHT22;10915;54.352;9.074;2023-06-19T16:32:50;26.30;99.90
21508;DHT22;10915;54.352;9.074;2023-06-19T16:35:16;26.40;99.90
21508;DHT22;10915;54.352;9.074;2023-06-19T16:37:53;26.30;99.90
21508;DHT22;10915;54.352;9.074;2023-06-19T16:40:22;26.30;99.90
21508;DHT22;10915;54.352;9.074;2023-06-19T16:42:52;26.30;99.90
21508;DHT22;10915;54.352;9.074;2023-06-19T16:45:18;26.30;99.90
21508;DHT22;10915;54.352;9.074;2023-06-19T16:47:44;26.30;99.90
21508;DHT22;10915;54.352;9.074;2023-06-19T16:50:10;26.20;99.90
21508;DHT22;10915;54.352;9.074;2023-06-19T16:52:36;26.20;99.90
21508;DHT22;10915;54.352;9.074;2023-06-19T16:55:01;26.10;99.90
21508;DHT22;10915;54.352;9.074;2023-06-19T16:57:27;26.00;99.90
21508;DHT22;10915;54.352;9.074;2023-06-19T16:59:58;26.00;99.90
21508;DHT22;10915;54.352;9.074;2023-06-19T17:02:24;26.00;99.90
21508;DHT22;10915;54.352;9.074;2023-06-19T17:04:50;25.90;99.90
21508;DHT22;10915;54.352;9.074;2023-06-19T17:07:16;25.90;99.90
21508;DHT22;10915;54.352;9.074;2023-06-19T17:09:41;25.80;99.90
21508;DHT22;10915;54.352;9.074;2023-06-19T17:12:09;25.80;99.90
21508;DHT22;10915;54.352;9.074;2023-06-19T17:14:35;25.70;99.90
21508;DHT22;10915;54.352;9.074;2023-06-19T17:17:00;25.60;99.90
21508;DHT22;10915;54.352;9.074;2023-06-19T17:19:26;25.50;99.90
21508;DHT22;10915;54.352;9.074;2023-06-19T17:21:52;25.40;99.90
21508;DHT22;10915;54.352;9.074;2023-06-19T17:24:19;25.40;99.90
21508;DHT22;10915;54.352;9.074;2023-06-19T17:26:45;25.30;99.90
21508;DHT22;10915;54.352;9.074;2023-06-19T17:29:10;25.20;99.90
21508;DHT22;10915;54.352;9.074;2023-06-19T17:31:36;25.20;99.90
21508;DHT22;10915;54.352;9.074;2023-06-19T17:34:03;25.10;99.90
21508;DHT22;10915;54.352;9.074;2023-06-19T17:36:29;25.00;99.90
21508;DHT22;10915;54.352;9.074;2023-06-19T17:38:54;24.90;99.90
21508;DHT22;10915;54.352;9.074;2023-06-19T17:41:20;24.80;99.90
21508;DHT22;10915;54.352;9.074;2023-06-19T17:43:45;24.80;99.90
21508;DHT22;10915;54.352;9.074;2023-06-19T17:46:11;24.70;99.90
21508;DHT22;10915;54.352;9.074;2023-06-19T17:48:37;24.60;99.90
21508;DHT22;10915;54.352;9.074;2023-06-19T17:51:03;24.60;99.90
21508;DHT22;10915;54.352;9.074;2023-06-19T17:53:29;24.50;99.90
21508;DHT22;10915;54.352;9.074;2023-06-19T17:55:55;24.40;99.90
21508;DHT22;10915;54.352;9.074;2023-06-19T17:58:20;24.30;99.90
21508;DHT22;10915;54.352;9.074;2023-06-19T18:00:48;24.20;99.90
21508;DHT22;10915;54.352;9.074;2023-06-19T18:03:14;24.20;99.90
21508;DHT22;10915;54.352;9.074;2023-06-19T18:05:40;24.10;99.90
21508;DHT22;10915;54.352;9.074;2023-06-19T18:08:05;24.00;99.90
21508;DHT22;10915;54.352;9.074;2023-06-19T18:10:31;23.90;99.90
21508;DHT22;10915;54.352;9.074;2023-06-19T18:12:56;23.90;99.90
21508;DHT22;10915;54.352;9.074;2023-06-19T18:15:23;23.80;99.90
21508;DHT22;10915;54.352;9.074;2023-06-19T18:17:48;23.70;99.90
21508;DHT22;10915;54.352;9.074;2023-06-19T18:20:14;23.60;99.90
21508;DHT22;10915;54.352;9.074;2023-06-19T18:22:40;23.50;99.90
21508;DHT22;10915;54.352;9.074;2023-06-19T18:25:06;23.40;99.90
21508;DHT22;10915;54.352;9.074;2023-06-19T18:27:31;23.30;99.90
21508;DHT22;10915;54.352;9.074;2023-06-19T18:29:57;23.20;99.90
21508;DHT22;10915;54.352;9.074;2023-06-19T18:32:23;23.10;99.90
21508;DHT22;10915;54.352;9.074;2023-06-19T18:34:49;23.00;99.90
21508;DHT22;10915;54.352;9.074;2023-06-19T18:37:15;22.80;99.90
21508;DHT22;10915;54.352;9.074;2023-06-19T18:39:40;22.70;99.90
21508;DHT22;10915;54.352;9.074;2023-06-19T18:42:06;22.60;99.90
21508;DHT22;10915;54.352;9.074;2023-06-19T18:44:32;22.50;99.90
21508;DHT22;10915;54.352;9.074;2023-06-19T18:46:58;22.50;99.90
21508;DHT22;10915;54.352;9.074;2023-06-19T18:49:23;22.40;99.90
21508;DHT22;10915;54.352;9.074;2023-06-19T18:51:49;22.30;99.90
21508;DHT22;10915;54.352;9.074;2023-06-19T18:54:15;22.20;99.90
21508;DHT22;10915;54.352;9.074;2023-06-19T18:56:40;22.20;99.90
21508;DHT22;10915;54.352;9.074;2023-06-19T18:59:06;22.10;99.90
21508;DHT22;10915;54.352;9.074;2023-06-19T19:01:31;22.00;99.90
21508;DHT22;10915;54.352;9.074;2023-06-19T19:03:57;21.90;99.90
21508;DHT22;10915;54.352;9.074;2023-06-19T19:06:23;21.80;99.90
21508;DHT22;10915;54.352;9.074;2023-06-19T19:08:48;21.70;99.90
21508;DHT22;10915;54.352;9.074;2023-06-19T19:11:25;21.70;99.90
21508;DHT22;10915;54.352;9.074;2023-06-19T19:14:06;21.60;99.90
21508;DHT22;10915;54.352;9.074;2023-06-19T19:16:35;21.50;99.90
21508;DHT22;10915;54.352;9.074;2023-06-19T19:19:00;21.40;99.90
21508;DHT22;10915;54.352;9.074;2023-06-19T19:21:26;21.30;99.90
21508;DHT22;10915;54.352;9.074;2023-06-19T19:23:51;21.20;99.90
21508;DHT22;10915;54.352;9.074;2023-06-19T19:26:17;21.20;99.90
21508;DHT22;10915;54.352;9.074;2023-06-19T19:28:43;21.10;99.90
21508;DHT22;10915;54.352;9.074;2023-06-19T19:31:08;21.00;99.90
21508;DHT22;10915;54.352;9.074;2023-06-19T19:33:35;20.90;99.90
21508;DHT22;10915;54.352;9.074;2023-06-19T19:36:00;20.80;99.90
21508;DHT22;10915;54.352;9.074;2023-06-19T19:38:26;20.70;99.90
21508;DHT22;10915;54.352;9.074;2023-06-19T19:40:52;20.70;99.90
21508;DHT22;10915;54.352;9.074;2023-06-19T19:43:18;20.60;99.90
21508;DHT22;10915;54.352;9.074;2023-06-19T19:45:52;20.50;99.90
21508;DHT22;10915;54.352;9.074;2023-06-19T19:48:21;20.40;99.90
21508;DHT22;10915;54.352;9.074;2023-06-19T19:50:47;20.30;99.90
21508;DHT22;10915;54.352;9.074;2023-06-19T19:56:34;20.20;99.90
21508;DHT22;10915;54.352;9.074;2023-06-19T19:59:04;20.10;99.90
21508;DHT22;10915;54.352;9.074;2023-06-19T20:01:29;19.90;99.90
21508;DHT22;10915;54.352;9.074;2023-06-19T20:03:56;19.80;99.90
21508;DHT22;10915;54.352;9.074;2023-06-19T20:06:21;19.70;99.90
21508;DHT22;10915;54.352;9.074;2023-06-19T20:08:47;19.60;99.90
21508;DHT22;10915;54.352;9.074;2023-06-19T20:11:13;19.50;99.90
21508;DHT22;10915;54.352;9.074;2023-06-19T20:13:39;19.50;99.90
21508;DHT22;10915;54.352;9.074;2023-06-19T20:16:07;19.40;99.90
21508;DHT22;10915;54.352;9.074;2023-06-19T20:18:35;19.30;99.90
21508;DHT22;10915;54.352;9.074;2023-06-19T20:21:01;19.10;99.90
21508;DHT22;10915;54.352;9.074;2023-06-19T20:23:28;19.00;99.90
21508;DHT22;10915;54.352;9.074;2023-06-19T20:25:54;18.90;99.90
21508;DHT22;10915;54.352;9.074;2023-06-19T20:28:19;18.80;99.90
21508;DHT22;10915;54.352;9.074;2023-06-19T20:30:45;18.70;99.90
21508;DHT22;10915;54.352;9.074;2023-06-19T20:33:11;18.70;99.90
21508;DHT22;10915;54.352;9.074;2023-06-19T20:35:36;18.60;99.90
21508;DHT22;10915;54.352;9.074;2023-06-19T20:38:02;18.50;99.90
21508;DHT22;10915;54.352;9.074;2023-06-19T20:40:28;18.50;99.90
21508;DHT22;10915;54.352;9.074;2023-06-19T20:42:53;18.50;99.90
21508;DHT22;10915;54.352;9.074;2023-06-19T20:45:19;18.40;99.90
21508;DHT22;10915;54.352;9.074;2023-06-19T20:47:51;18.30;99.90
21508;DHT22;10915;54.352;9.074;2023-06-19T20:50:18;18.20;99.90
21508;DHT22;10915;54.352;9.074;2023-06-19T20:52:44;18.20;99.90
21508;DHT22;10915;54.352;9.074;2023-06-19T20:55:09;18.10;99.90
21508;DHT22;10915;54.352;9.074;2023-06-19T20:57:35;18.10;99.90
21508;DHT22;10915;54.352;9.074;2023-06-19T21:00:01;18.10;99.90
21508;DHT22;10915;54.352;9.074;2023-06-19T21:02:29;18.10;99.90
21508;DHT22;10915;54.352;9.074;2023-06-19T21:04:57;18.00;99.90
21508;DHT22;10915;54.352;9.074;2023-06-19T21:07:22;18.00;99.90
21508;DHT22;10915;54.352;9.074;2023-06-19T21:09:48;18.00;99.90
21508;DHT22;10915;54.352;9.074;2023-06-19T21:12:17;17.90;99.90
21508;DHT22;10915;54.352;9.074;2023-06-19T21:14:42;17.90;99.90
21508;DHT22;10915;54.352;9.074;2023-06-19T21:17:08;17.90;99.90
21508;DHT22;10915;54.352;9.074;2023-06-19T21:19:33;17.90;99.90
21508;DHT22;10915;54.352;9.074;2023-06-19T21:21:59;17.80;99.90
21508;DHT22;10915;54.352;9.074;2023-06-19T21:24:24;17.80;99.90
21508;DHT22;10915;54.352;9.074;2023-06-19T21:26:50;17.80;99.90
21508;DHT22;10915;54.352;9.074;2023-06-19T21:29:16;17.70;99.90
21508;DHT22;10915;54.352;9.074;2023-06-19T21:31:41;17.60;99.90
21508;DHT22;10915;54.352;9.074;2023-06-19T21:34:08;17.60;99.90
21508;DHT22;10915;54.352;9.074;2023-06-19T21:36:33;17.60;99.90